Terminal Aerodrome Forecast
Issued by NWS Blacksburg, VA

Current Version | Previous Version | Text Only | Print | Product List | Glossary On
Versions: 1 2 3 4 5 6 7 8 9 10 11 12 13 14 15 16 17 18 19 20 21 22 23 24 25 26 27 28 29 30 31 32 33 34 35 36 37 38 39 40 41 42 43 44 45 46 47 48 49 50
000
FTUS41 KRNK 051140
TAFLYH
TAF
KLYH 051140Z 0512/0612 02010KT 3SM -RA BR OVC003
     FM051500 03008KT 2SM -FZRAPL BR OVC006
     FM052100 01007KT 2SM -SN BR OVC008
     FM060000 01005KT P6SM OVC015
     FM060900 03004KT P6SM BKN100=

USA.gov is the U.S. government's official web portal to all federal, state and local government web resources and services.